Time;durP1;ratioP1;P1;durP2;ratioP2;P2;SDS_P1;SDS_P2;PMS_P1;PMS_P2;Temp;Humidity;BMP_temperature;BMP_pressure;BME280_temperature;BME280_humidity;BME280_pressure;Samples;Min_cycle;Max_cycle;Signal;HPM_P1;HPM_P2
2022/01/26 00:00:42;;;;;;;16.83;15.83;;;19.10;52.20;;;;;;5009240;28;20450;-54
2022/01/26 00:06:00;;;;;;;16.20;15.33;;;18.80;52.60;;;;;;5008763;28;20506;-59
2022/01/26 00:08:26;;;;;;;15.97;15.07;;;18.70;53.00;;;;;;5010299;28;20442;-59
2022/01/26 00:10:54;;;;;;;17.07;16.17;;;18.70;53.30;;;;;;5028371;28;20468;-57
2022/01/26 00:13:21;;;;;;;17.43;16.43;;;18.70;53.40;;;;;;5026997;28;20450;-59
2022/01/26 00:15:48;;;;;;;17.53;16.60;;;18.60;53.40;;;;;;5026408;28;20450;-57
2022/01/26 00:18:17;;;;;;;16.33;15.43;;;18.60;53.60;;;;;;5026984;28;20448;-56
2022/01/26 00:20:50;;;;;;;15.90;15.10;;;18.50;53.70;;;;;;5008046;28;20534;-59
2022/01/26 00:23:50;;;;;;;17.37;16.37;;;18.50;53.90;;;;;;5006353;28;20461;-58
2022/01/26 00:26:14;;;;;;;17.20;16.27;;;18.50;53.90;;;;;;5004566;28;20511;-56
2022/01/26 00:28:58;;;;;;;16.93;16.03;;;18.50;54.10;;;;;;5007272;28;20470;-58
2022/01/26 00:38:34;;;;;;;17.47;16.47;;;18.50;54.00;;;;;;5006346;28;20511;-59
2022/01/26 00:39:56;;;;;;;18.00;16.87;;;18.40;54.00;;;;;;5018298;28;20441;-56
2022/01/26 00:42:25;;;;;;;17.77;16.77;;;18.40;54.00;;;;;;5026400;28;20480;-58
2022/01/26 00:44:52;;;;;;;16.60;15.70;;;18.40;53.90;;;;;;5027902;28;20486;-60
2022/01/26 00:47:19;;;;;;;17.13;16.13;;;18.40;53.90;;;;;;5023036;28;20454;-56
2022/01/26 00:49:46;;;;;;;18.27;16.97;;;18.40;54.00;;;;;;5004859;28;20805;-56
2022/01/26 00:52:19;;;;;;;16.93;15.93;;;18.40;53.80;;;;;;5004974;28;20486;-57
2022/01/26 00:54:46;;;;;;;17.50;16.63;;;18.40;53.80;;;;;;5004729;28;20447;-54
2022/01/26 00:57:14;;;;;;;17.30;16.37;;;18.30;53.90;;;;;;5004183;28;20447;-58
2022/01/26 00:59:42;;;;;;;16.30;15.30;;;18.30;54.10;;;;;;5004914;28;20435;-60
2022/01/26 01:02:09;;;;;;;16.53;15.60;;;18.30;54.20;;;;;;5005115;28;20459;-54
2022/01/26 01:04:36;;;;;;;17.23;16.23;;;18.20;54.30;;;;;;5004499;28;21003;-58
2022/01/26 01:07:05;;;;;;;16.37;15.37;;;18.10;54.40;;;;;;5005062;28;20450;-58
2022/01/26 01:09:34;;;;;;;16.60;15.70;;;18.10;54.70;;;;;;5004211;28;20451;-58
2022/01/26 01:12:03;;;;;;;17.40;16.50;;;18.10;54.90;;;;;;5004747;28;20467;-58
2022/01/26 01:14:31;;;;;;;16.97;16.07;;;18.10;55.10;;;;;;5006039;28;20516;-57
2022/01/26 01:17:03;;;;;;;17.50;16.50;;;18.10;55.20;;;;;;5013471;28;20442;-60
2022/01/26 01:19:35;;;;;;;16.10;15.37;;;18.10;55.30;;;;;;5025900;28;20449;-58
2022/01/26 01:22:32;;;;;;;16.10;15.40;;;18.10;55.40;;;;;;5024838;28;20470;-57
2022/01/26 01:25:40;;;;;;;16.77;15.87;;;18.10;55.50;;;;;;5024380;28;20516;-59
2022/01/26 01:28:20;;;;;;;17.37;16.37;;;18.00;55.50;;;;;;5006824;28;20449;-59
2022/01/26 01:30:50;;;;;;;15.83;14.93;;;18.00;55.60;;;;;;5006269;28;20891;-58
2022/01/26 01:33:21;;;;;;;17.67;16.47;;;17.90;56.00;;;;;;5004427;28;20459;-56
2022/01/26 01:35:49;;;;;;;16.60;15.70;;;17.90;56.10;;;;;;5008063;28;20708;-59
2022/01/26 01:38:18;;;;;;;17.57;16.63;;;17.90;56.30;;;;;;5023878;28;20450;-55
2022/01/26 01:40:48;;;;;;;17.63;16.53;;;17.90;56.50;;;;;;5025585;28;20489;-59
2022/01/26 01:43:17;;;;;;;16.83;15.90;;;17.80;56.60;;;;;;5022188;28;20449;-55
2022/01/26 01:45:48;;;;;;;18.17;17.07;;;17.90;57.00;;;;;;5016316;28;20474;-59
2022/01/26 01:48:18;;;;;;;18.30;17.20;;;17.80;56.60;;;;;;5002738;28;20447;-57
2022/01/26 01:50:47;;;;;;;16.93;15.90;;;17.80;56.50;;;;;;5027858;22;20863;-54
2022/01/26 01:53:17;;;;;;;16.80;15.83;;;17.70;56.60;;;;;;5041612;28;20453;-56
2022/01/26 01:55:48;;;;;;;17.60;16.40;;;17.70;56.50;;;;;;5029133;28;20496;-49
2022/01/26 01:58:16;;;;;;;19.20;17.70;;;17.70;56.50;;;;;;5011870;28;20473;-49
2022/01/26 02:00:44;;;;;;;17.20;16.27;;;17.70;56.50;;;;;;5011846;28;20472;-50
2022/01/26 02:03:10;;;;;;;18.23;17.03;;;17.60;56.30;;;;;;5011847;28;20442;-54
2022/01/26 02:05:37;;;;;;;17.00;16.10;;;17.70;56.50;;;;;;5017237;28;20481;-50
2022/01/26 02:08:06;;;;;;;18.73;17.47;;;17.60;56.40;;;;;;5031407;28;20456;-55
2022/01/26 02:10:34;;;;;;;17.57;16.53;;;17.60;56.40;;;;;;5031542;28;20445;-55
2022/01/26 02:13:05;;;;;;;16.40;15.40;;;17.60;56.40;;;;;;5031429;28;20473;-52
2022/01/26 02:15:39;;;;;;;16.60;15.63;;;17.50;56.40;;;;;;5031225;28;20459;-53
2022/01/26 02:18:29;;;;;;;17.03;15.90;;;17.50;56.50;;;;;;5031557;28;20444;-50
2022/01/26 02:21:19;;;;;;;18.57;17.37;;;17.40;56.40;;;;;;5031314;28;20502;-50
2022/01/26 02:57:09;;;;;;;18.17;16.97;;;17.20;57.20;;;;;;5028515;28;20460;-52
2022/01/26 03:02:36;;;;;;;18.30;17.10;;;17.20;56.90;;;;;;4987334;28;20468;-53
2022/01/26 03:05:06;;;;;;;16.40;15.50;;;17.20;56.80;;;;;;5034240;28;20480;-54
2022/01/26 03:07:42;;;;;;;20.57;18.90;;;17.20;56.70;;;;;;5014494;28;20446;-48
2022/01/26 03:10:18;;;;;;;18.00;16.80;;;17.20;56.70;;;;;;5014629;28;20503;-56
2022/01/26 03:12:51;;;;;;;19.07;17.80;;;17.20;56.70;;;;;;5014478;28;20469;-49
2022/01/26 03:15:22;;;;;;;18.27;17.17;;;17.20;56.70;;;;;;5016332;28;20931;-54
2022/01/26 03:18:11;;;;;;;21.00;19.10;;;17.10;56.50;;;;;;5034263;28;20467;-54
2022/01/26 03:20:40;;;;;;;18.63;17.40;;;17.10;56.50;;;;;;5033812;28;20549;-55
2022/01/26 03:28:47;;;;;;;18.73;17.33;;;17.00;56.80;;;;;;5034219;28;20491;-54
2022/01/26 03:34:02;;;;;;;18.17;16.97;;;17.00;56.80;;;;;;5034089;28;20428;-53
2022/01/26 03:36:32;;;;;;;18.13;17.03;;;16.90;56.80;;;;;;5033480;28;20445;-51
2022/01/26 03:39:05;;;;;;;17.57;16.63;;;16.90;56.90;;;;;;5034062;28;20451;-50
2022/01/26 03:41:39;;;;;;;21.87;19.77;;;16.90;57.00;;;;;;5033817;28;20472;-53
2022/01/26 03:44:07;;;;;;;20.93;19.23;;;16.90;57.00;;;;;;5033914;28;20807;-51
2022/01/26 03:46:34;;;;;;;20.70;19.10;;;17.00;56.70;;;;;;5033302;28;20477;-52
2022/01/26 03:49:01;;;;;;;17.50;16.37;;;16.80;56.60;;;;;;5033845;28;20810;-52
2022/01/26 03:51:28;;;;;;;18.40;17.13;;;17.00;56.90;;;;;;5033406;28;20837;-56
2022/01/26 03:53:55;;;;;;;20.37;18.73;;;16.90;56.60;;;;;;5033182;28;20515;-52
2022/01/26 03:56:22;;;;;;;18.97;17.70;;;16.80;57.30;;;;;;5013652;28;20442;-53
2022/01/26 03:58:50;;;;;;;17.00;15.90;;;16.80;56.80;;;;;;5031953;28;20444;-51
2022/01/26 04:01:17;;;;;;;17.23;16.23;;;16.90;56.80;;;;;;5033568;28;20477;-52
2022/01/26 04:03:44;;;;;;;19.57;18.13;;;16.80;56.60;;;;;;5033151;28;20453;-51
2022/01/26 04:06:11;;;;;;;19.13;17.87;;;16.70;56.70;;;;;;5032957;28;20481;-50
2022/01/26 04:08:40;;;;;;;20.00;18.40;;;16.80;57.00;;;;;;5033414;28;20446;-57
2022/01/26 04:11:22;;;;;;;18.77;17.47;;;16.70;56.80;;;;;;5033178;28;20598;-52
2022/01/26 04:13:51;;;;;;;18.93;17.73;;;16.60;56.80;;;;;;5033019;28;20901;-53
2022/01/26 04:16:19;;;;;;;19.00;17.60;;;16.70;57.00;;;;;;5033078;28;20560;-54
2022/01/26 04:18:45;;;;;;;18.23;17.00;;;16.70;57.00;;;;;;5033144;28;20460;-50
2022/01/26 04:21:20;;;;;;;20.50;18.90;;;16.70;57.40;;;;;;5033047;28;20844;-51
2022/01/26 04:23:51;;;;;;;20.90;19.50;;;16.70;57.00;;;;;;5032816;28;20457;-54
2022/01/26 04:26:22;;;;;;;20.30;18.80;;;16.60;57.00;;;;;;5032821;28;20491;-51
2022/01/26 04:28:55;;;;;;;20.43;18.80;;;16.70;57.20;;;;;;5033047;28;20539;-53
2022/01/26 04:31:22;;;;;;;17.83;16.73;;;16.60;56.80;;;;;;5032835;28;20504;-50
2022/01/26 04:33:50;;;;;;;19.97;18.50;;;16.60;56.90;;;;;;5032769;28;20969;-52
2022/01/26 04:36:23;;;;;;;17.13;16.00;;;16.60;57.00;;;;;;5032525;28;20445;-55
2022/01/26 04:38:54;;;;;;;21.27;19.40;;;16.60;57.00;;;;;;5032770;28;20880;-51
2022/01/26 04:41:29;;;;;;;20.63;18.93;;;16.50;57.00;;;;;;5032690;28;20469;-53
2022/01/26 04:44:02;;;;;;;20.03;18.43;;;16.60;57.00;;;;;;5032354;28;20448;-54
2022/01/26 04:46:29;;;;;;;19.00;17.57;;;16.50;56.80;;;;;;5032413;28;20516;-53
2022/01/26 04:48:56;;;;;;;21.63;19.83;;;16.50;56.90;;;;;;5032626;28;20476;-53
2022/01/26 04:51:23;;;;;;;22.47;20.57;;;16.50;56.90;;;;;;5032292;28;20472;-55
2022/01/26 04:53:49;;;;;;;22.57;20.87;;;16.50;56.80;;;;;;5032340;28;20453;-52
2022/01/26 04:56:16;;;;;;;20.80;19.10;;;16.50;56.70;;;;;;5032158;28;20524;-51
2022/01/26 04:58:43;;;;;;;21.60;19.77;;;16.50;56.80;;;;;;5032373;28;20452;-55
2022/01/26 05:01:11;;;;;;;21.00;19.33;;;16.50;56.70;;;;;;5032310;28;20471;-53
2022/01/26 05:03:38;;;;;;;21.67;20.17;;;16.40;56.60;;;;;;5031792;28;20445;-52
2022/01/26 05:06:05;;;;;;;20.77;19.37;;;16.30;56.80;;;;;;5031688;28;20481;-56
2022/01/26 05:08:31;;;;;;;21.40;19.80;;;16.30;57.00;;;;;;5032206;28;20471;-54
2022/01/26 05:10:59;;;;;;;21.40;19.77;;;16.40;56.90;;;;;;5032187;28;20453;-51
2022/01/26 05:13:26;;;;;;;19.40;18.13;;;16.30;56.60;;;;;;5032018;28;20453;-54
2022/01/26 05:15:53;;;;;;;23.97;22.07;;;16.30;57.00;;;;;;5031941;28;20447;-51
2022/01/26 05:18:23;;;;;;;22.07;20.37;;;16.30;56.70;;;;;;5032105;28;20446;-53
2022/01/26 05:20:50;;;;;;;19.20;17.97;;;16.30;56.70;;;;;;5032043;28;20477;-54
2022/01/26 05:23:16;;;;;;;24.97;23.17;;;16.40;56.90;;;;;;5031874;28;20520;-53
2022/01/26 05:25:43;;;;;;;21.90;20.33;;;16.30;56.70;;;;;;5031818;28;20974;-54
2022/01/26 05:28:10;;;;;;;21.40;19.80;;;16.20;56.60;;;;;;5031913;28;20445;-49
2022/01/26 05:30:37;;;;;;;20.50;18.87;;;16.20;56.80;;;;;;5031881;28;21049;-51
2022/01/26 05:33:04;;;;;;;19.53;18.27;;;16.20;57.00;;;;;;5031534;28;20476;-51
2022/01/26 05:35:33;;;;;;;20.63;19.10;;;16.20;57.00;;;;;;5031656;28;20579;-50
2022/01/26 05:37:59;;;;;;;20.00;18.70;;;16.10;57.10;;;;;;5031845;28;20456;-53
2022/01/26 05:40:26;;;;;;;22.00;20.20;;;16.10;57.10;;;;;;5031794;28;20445;-51
2022/01/26 05:42:53;;;;;;;21.87;19.97;;;16.10;57.10;;;;;;5031342;28;20465;-52
2022/01/26 05:45:26;;;;;;;20.23;18.87;;;16.00;57.20;;;;;;5031651;28;20912;-51
2022/01/26 05:47:53;;;;;;;21.13;19.77;;;16.00;57.50;;;;;;5031758;28;20436;-54
2022/01/26 05:50:21;;;;;;;19.87;18.47;;;16.30;58.40;;;;;;5031822;28;20511;-52
2022/01/26 05:52:50;;;;;;;23.30;21.60;;;17.70;58.10;;;;;;5031174;28;20472;-52
2022/01/26 05:55:17;;;;;;;19.60;18.33;;;18.60;54.90;;;;;;5031633;28;20937;-50
2022/01/26 05:57:44;;;;;;;22.60;20.97;;;18.90;53.10;;;;;;5031579;28;20452;-49
2022/01/26 06:00:12;;;;;;;24.23;22.30;;;19.30;52.20;;;;;;5031733;28;20448;-55
2022/01/26 06:02:39;;;;;;;22.57;20.93;;;19.40;51.40;;;;;;5031255;28;20469;-47
2022/01/26 06:05:07;;;;;;;23.30;21.70;;;19.50;50.80;;;;;;5031662;28;21012;-49
2022/01/26 06:07:33;;;;;;;21.67;20.17;;;19.50;50.50;;;;;;5031099;28;20481;-49
2022/01/26 06:10:02;;;;;;;23.50;21.63;;;19.50;50.10;;;;;;5031555;28;20452;-51
2022/01/26 06:12:29;;;;;;;22.60;21.03;;;19.60;49.90;;;;;;5031189;28;20471;-50
2022/01/26 06:14:56;;;;;;;23.50;21.90;;;19.70;49.90;;;;;;5031725;28;20449;-51
2022/01/26 06:17:23;;;;;;;22.50;20.90;;;19.60;49.50;;;;;;5035310;28;20444;-49
2022/01/26 06:19:50;;;;;;;22.80;21.20;;;19.80;49.50;;;;;;5035282;28;20444;-58
2022/01/26 06:22:16;;;;;;;23.20;21.70;;;19.70;49.30;;;;;;5034903;28;20469;-47
2022/01/26 06:24:43;;;;;;;22.73;21.10;;;19.80;51.40;;;;;;5034380;28;20471;-53
2022/01/26 06:27:11;;;;;;;26.37;24.07;;;19.80;53.30;;;;;;5034801;28;20487;-49
2022/01/26 06:29:38;;;;;;;29.17;26.53;;;19.70;52.70;;;;;;5035116;28;20456;-51
2022/01/26 06:32:07;;;;;;;26.73;24.37;;;19.70;52.50;;;;;;5034621;28;20591;-50
2022/01/26 06:34:38;;;;;;;25.33;23.33;;;19.70;52.40;;;;;;5035089;28;20850;-51
2022/01/26 06:37:05;;;;;;;25.97;23.83;;;19.80;52.30;;;;;;5034825;28;20449;-52
2022/01/26 06:39:32;;;;;;;25.67;23.57;;;19.70;51.70;;;;;;5034933;28;20490;-51
2022/01/26 06:41:59;;;;;;;23.57;21.70;;;19.70;51.40;;;;;;5034735;28;20542;-49
2022/01/26 06:44:31;;;;;;;26.23;24.03;;;19.60;51.00;;;;;;5034720;28;20456;-50
2022/01/26 06:47:16;;;;;;;24.07;22.10;;;19.60;51.20;;;;;;5034477;28;20485;-50
2022/01/26 06:49:42;;;;;;;26.27;24.07;;;19.50;51.00;;;;;;5034718;28;20452;-52
2022/01/26 06:52:09;;;;;;;26.03;23.80;;;19.50;50.90;;;;;;5034588;28;20848;-49
2022/01/26 06:54:36;;;;;;;24.13;22.17;;;19.50;50.90;;;;;;5034696;28;20448;-50
2022/01/26 06:57:03;;;;;;;26.87;24.53;;;19.40;50.80;;;;;;5034367;28;20943;-47
2022/01/26 06:59:31;;;;;;;25.00;22.90;;;19.40;50.70;;;;;;5034666;28;20449;-49
2022/01/26 07:01:58;;;;;;;26.80;24.87;;;19.40;50.80;;;;;;5034388;28;20966;-49
2022/01/26 07:04:25;;;;;;;27.20;25.00;;;19.40;50.40;;;;;;5034497;28;20451;-49
2022/01/26 07:06:51;;;;;;;24.07;22.33;;;19.30;50.10;;;;;;5034145;28;20480;-52
2022/01/26 07:09:19;;;;;;;23.07;21.40;;;19.30;50.50;;;;;;5034499;28;20445;-48
2022/01/26 07:11:46;;;;;;;23.83;21.87;;;19.20;50.60;;;;;;5034393;28;21017;-52
2022/01/26 07:14:22;;;;;;;23.33;21.73;;;19.20;50.60;;;;;;5034462;28;20510;-49
2022/01/26 07:20:04;;;;;;;23.53;21.80;;;19.10;50.40;;;;;;5034177;28;20425;-51
2022/01/26 07:22:31;;;;;;;24.50;22.60;;;19.10;50.50;;;;;;5034452;28;20555;-46
2022/01/26 07:24:57;;;;;;;22.93;21.13;;;19.10;50.40;;;;;;5034063;28;20468;-48
2022/01/26 07:27:24;;;;;;;23.83;21.83;;;19.10;50.40;;;;;;5033205;28;21002;-45
2022/01/26 07:29:51;;;;;;;21.43;19.77;;;19.00;50.40;;;;;;5033999;28;20452;-46
2022/01/26 07:32:19;;;;;;;19.97;18.60;;;19.00;50.40;;;;;;5033992;28;20568;-51
2022/01/26 07:34:46;;;;;;;21.70;20.10;;;19.00;50.40;;;;;;5033967;28;20452;-47
2022/01/26 07:37:14;;;;;;;20.70;19.20;;;18.90;50.30;;;;;;5033707;28;20548;-50
2022/01/26 07:39:46;;;;;;;22.70;20.70;;;18.80;50.40;;;;;;5033882;28;20481;-52
2022/01/26 07:42:14;;;;;;;20.73;19.23;;;18.80;50.50;;;;;;5033772;28;20555;-48
2022/01/26 07:44:41;;;;;;;21.60;20.00;;;18.80;50.50;;;;;;5033876;28;20793;-46
2022/01/26 07:47:11;;;;;;;21.50;19.80;;;18.80;50.50;;;;;;5033371;28;20484;-47
2022/01/26 07:49:39;;;;;;;21.13;19.43;;;18.70;50.50;;;;;;5033525;28;20483;-45
2022/01/26 07:52:06;;;;;;;20.63;18.97;;;18.70;50.50;;;;;;5034136;28;20484;-44
2022/01/26 07:54:33;;;;;;;20.27;18.97;;;18.60;50.50;;;;;;5033440;28;20449;-48
2022/01/26 07:57:00;;;;;;;21.33;19.83;;;18.60;50.70;;;;;;5033361;28;20441;-44
2022/01/26 07:59:27;;;;;;;24.93;22.90;;;18.50;50.70;;;;;;5033500;28;20453;-47
2022/01/26 08:01:54;;;;;;;22.93;21.00;;;18.40;50.80;;;;;;5033225;28;20465;-45
2022/01/26 08:04:21;;;;;;;19.73;18.33;;;18.30;51.00;;;;;;5033307;28;20471;-46
2022/01/26 08:06:50;;;;;;;23.23;21.60;;;18.20;51.00;;;;;;5033064;28;20488;-48
2022/01/26 08:09:16;;;;;;;19.80;18.40;;;18.10;51.10;;;;;;5033261;28;20452;-47
2022/01/26 08:11:43;;;;;;;23.33;21.40;;;18.10;51.40;;;;;;5033169;28;20471;-48
2022/01/26 08:14:10;;;;;;;24.90;22.80;;;18.00;51.30;;;;;;5033110;28;20464;-45
2022/01/26 08:16:38;;;;;;;22.00;20.20;;;18.00;51.30;;;;;;5032845;28;20448;-46
2022/01/26 08:19:05;;;;;;;22.20;20.50;;;17.90;51.40;;;;;;5033069;28;20475;-46
2022/01/26 08:21:32;;;;;;;23.47;21.47;;;17.90;51.60;;;;;;5032949;28;20476;-48
2022/01/26 08:24:03;;;;;;;22.00;20.47;;;17.90;51.50;;;;;;5032950;28;20449;-47
2022/01/26 08:26:38;;;;;;;23.93;22.13;;;17.80;51.60;;;;;;5032762;28;20449;-47
2022/01/26 08:29:11;;;;;;;21.23;19.63;;;17.80;51.60;;;;;;5032898;28;20531;-48
2022/01/26 08:31:38;;;;;;;22.60;20.70;;;17.80;51.80;;;;;;5032848;28;20465;-52
2022/01/26 08:34:05;;;;;;;21.00;19.63;;;17.80;51.90;;;;;;5032808;28;20827;-44
2022/01/26 08:36:31;;;;;;;22.77;20.97;;;17.80;52.00;;;;;;5032497;28;20445;-44
2022/01/26 08:38:59;;;;;;;20.67;19.17;;;18.00;51.80;;;;;;5031876;28;20449;-51
2022/01/26 08:41:26;;;;;;;24.70;22.77;;;18.20;51.60;;;;;;5032560;28;20473;-52
2022/01/26 08:43:53;;;;;;;23.57;21.80;;;18.40;51.20;;;;;;5032593;28;20457;-45
2022/01/26 08:46:19;;;;;;;24.37;22.37;;;18.40;51.00;;;;;;5032312;28;20445;-45
2022/01/26 08:48:46;;;;;;;23.60;21.63;;;18.40;50.70;;;;;;5032530;28;20437;-50
2022/01/26 08:51:14;;;;;;;26.60;23.93;;;18.40;50.70;;;;;;5032263;28;20826;-45
2022/01/26 08:53:40;;;;;;;20.43;18.83;;;18.40;50.50;;;;;;5032500;28;20468;-53
2022/01/26 08:56:08;;;;;;;23.43;21.43;;;18.50;50.50;;;;;;5032149;28;20452;-45
2022/01/26 08:58:35;;;;;;;23.07;21.30;;;18.40;50.20;;;;;;5032269;28;20441;-48
2022/01/26 09:01:02;;;;;;;25.33;23.13;;;18.40;50.30;;;;;;5032207;28;20469;-46
2022/01/26 09:03:29;;;;;;;27.90;25.40;;;18.40;50.20;;;;;;5032388;28;20523;-48
2022/01/26 09:05:56;;;;;;;22.60;20.80;;;18.40;50.10;;;;;;5032001;28;20928;-48
2022/01/26 09:08:25;;;;;;;21.73;20.17;;;18.40;50.20;;;;;;5032070;28;20491;-45
2022/01/26 09:10:56;;;;;;;21.20;19.70;;;18.30;50.20;;;;;;5032083;28;20950;-45
2022/01/26 09:13:25;;;;;;;22.20;20.60;;;18.30;50.30;;;;;;5032091;28;21038;-48
2022/01/26 09:15:53;;;;;;;21.43;19.80;;;18.30;50.30;;;;;;5031867;28;20485;-46
2022/01/26 09:18:30;;;;;;;25.13;23.13;;;18.20;50.30;;;;;;5031997;28;20954;-45
2022/01/26 09:20:57;;;;;;;23.00;21.20;;;18.10;50.20;;;;;;5031940;28;20449;-48
2022/01/26 09:23:24;;;;;;;21.60;19.90;;;18.00;50.30;;;;;;5032009;28;20445;-45
2022/01/26 09:25:51;;;;;;;21.53;19.67;;;17.90;50.60;;;;;;5031906;28;20445;-46
2022/01/26 09:28:17;;;;;;;21.10;19.37;;;17.90;50.60;;;;;;5031977;28;20857;-47
2022/01/26 09:30:45;;;;;;;19.30;18.00;;;17.80;50.70;;;;;;5031765;28;20448;-45
2022/01/26 09:33:12;;;;;;;20.67;19.13;;;17.70;50.90;;;;;;5031883;28;20461;-46
2022/01/26 09:35:39;;;;;;;24.17;22.03;;;17.70;51.00;;;;;;5031686;28;20449;-47
2022/01/26 09:38:06;;;;;;;25.33;23.07;;;17.70;51.00;;;;;;5031652;28;20441;-47
2022/01/26 09:40:33;;;;;;;23.77;21.73;;;17.60;50.60;;;;;;5031780;28;20448;-49
2022/01/26 09:43:00;;;;;;;22.27;20.67;;;17.60;50.90;;;;;;5031606;28;20506;-48
2022/01/26 09:45:29;;;;;;;21.20;19.60;;;17.60;51.10;;;;;;5031530;28;20510;-46
2022/01/26 09:47:57;;;;;;;21.47;19.83;;;17.60;51.30;;;;;;5031504;28;20892;-45
2022/01/26 09:50:24;;;;;;;22.30;20.50;;;17.50;51.30;;;;;;5031396;28;20445;-45
2022/01/26 09:52:53;;;;;;;20.23;18.80;;;17.50;51.20;;;;;;5031528;28;20828;-44
2022/01/26 09:55:20;;;;;;;21.90;20.30;;;17.40;51.30;;;;;;5031555;28;20460;-47
2022/01/26 09:57:47;;;;;;;23.73;21.40;;;17.50;51.60;;;;;;5031448;28;20452;-45
2022/01/26 10:00:15;;;;;;;25.67;23.37;;;17.80;51.60;;;;;;5031653;28;20452;-45
2022/01/26 10:02:44;;;;;;;22.77;20.93;;;18.10;51.20;;;;;;5031420;28;20469;-47
2022/01/26 10:05:17;;;;;;;22.83;21.23;;;18.30;50.80;;;;;;5031344;28;20935;-47
2022/01/26 10:07:57;;;;;;;21.47;19.87;;;18.40;50.30;;;;;;5031414;28;20918;-46
2022/01/26 10:16:15;;;;;;;19.23;17.90;;;18.60;49.60;;;;;;5031330;28;20421;-47
2022/01/26 10:18:42;;;;;;;24.60;22.60;;;18.60;49.40;;;;;;5031480;28;20473;-45
2022/01/26 10:21:11;;;;;;;20.57;19.17;;;18.60;49.20;;;;;;5031394;28;21000;-46
2022/01/26 10:23:39;;;;;;;21.47;19.87;;;18.60;49.20;;;;;;5031304;28;20813;-45
2022/01/26 10:26:08;;;;;;;22.33;20.70;;;18.60;49.20;;;;;;5031136;28;20448;-45
2022/01/26 10:28:45;;;;;;;23.43;21.53;;;18.70;49.20;;;;;;5031186;28;20481;-45
2022/01/26 10:31:17;;;;;;;23.77;21.73;;;18.70;49.00;;;;;;5031214;28;20464;-45
2022/01/26 10:33:55;;;;;;;24.67;22.60;;;18.70;48.90;;;;;;5031205;28;20935;-45
2022/01/26 10:36:23;;;;;;;21.87;20.07;;;18.60;48.70;;;;;;5031068;28;20445;-46
2022/01/26 10:38:58;;;;;;;20.87;19.17;;;18.60;48.90;;;;;;5031243;28;20441;-45
2022/01/26 10:41:25;;;;;;;20.20;19.03;;;18.60;48.90;;;;;;5031014;28;20469;-45
2022/01/26 10:43:54;;;;;;;20.17;18.73;;;18.60;48.90;;;;;;5031170;28;20448;-46
2022/01/26 10:46:30;;;;;;;24.70;22.60;;;18.60;49.00;;;;;;5030957;28;20542;-45
2022/01/26 10:49:14;;;;;;;23.17;21.23;;;18.60;48.90;;;;;;5031132;28;21023;-45
2022/01/26 10:52:01;;;;;;;21.23;19.60;;;18.50;48.80;;;;;;5030842;28;20473;-45
2022/01/26 10:54:36;;;;;;;23.63;21.63;;;18.50;48.80;;;;;;5031115;28;20453;-45
2022/01/26 10:57:04;;;;;;;21.20;19.80;;;18.40;48.70;;;;;;5030802;28;20448;-45
2022/01/26 10:59:32;;;;;;;20.80;19.30;;;18.30;48.90;;;;;;5031099;28;20452;-44
2022/01/26 11:02:02;;;;;;;21.67;20.07;;;18.30;49.00;;;;;;5031064;28;20858;-46
2022/01/26 11:04:29;;;;;;;23.53;21.67;;;18.20;49.10;;;;;;5034482;28;20459;-45
2022/01/26 11:06:57;;;;;;;22.33;20.60;;;18.20;49.10;;;;;;5034378;28;20801;-45
2022/01/26 11:09:27;;;;;;;20.13;18.60;;;18.20;49.30;;;;;;5034494;28;20897;-48
2022/01/26 11:12:01;;;;;;;19.90;18.30;;;18.10;49.30;;;;;;5034161;28;20806;-44
2022/01/26 11:14:39;;;;;;;24.50;22.40;;;17.90;49.30;;;;;;5034517;28;20448;-45
2022/01/26 11:17:06;;;;;;;23.27;21.20;;;17.80;49.40;;;;;;5034179;28;20961;-45
2022/01/26 11:19:41;;;;;;;21.33;19.70;;;17.80;49.40;;;;;;5034138;28;20957;-45
2022/01/26 11:22:10;;;;;;;21.80;20.07;;;17.70;49.60;;;;;;5034106;28;20568;-46
2022/01/26 11:24:43;;;;;;;24.33;22.30;;;17.70;49.80;;;;;;5034205;28;20502;-45
2022/01/26 11:27:10;;;;;;;20.53;19.10;;;17.60;49.70;;;;;;5033824;28;20464;-48
2022/01/26 11:29:42;;;;;;;21.80;20.10;;;17.60;49.90;;;;;;5034090;28;20445;-50
2022/01/26 11:32:13;;;;;;;20.60;18.90;;;17.60;49.90;;;;;;5033995;28;20909;-45
2022/01/26 11:34:41;;;;;;;26.33;24.10;;;17.50;49.90;;;;;;5034064;28;20484;-45
2022/01/26 11:37:12;;;;;;;20.30;18.70;;;17.40;50.00;;;;;;5033758;28;20453;-45
2022/01/26 11:45:02;;;;;;;19.23;17.97;;;17.80;50.50;;;;;;5033738;28;20444;-45
2022/01/26 11:45:18;;;;;;;19.13;17.73;;;18.10;50.20;;;;;;5033551;28;20711;-50
2022/01/26 11:47:58;;;;;;;23.30;21.30;;;18.30;49.70;;;;;;5033645;28;20473;-46
2022/01/26 11:50:27;;;;;;;22.37;20.57;;;18.50;49.40;;;;;;5033837;28;20941;-45
2022/01/26 11:53:03;;;;;;;21.67;19.97;;;18.60;48.90;;;;;;5033393;28;20982;-47
2022/01/26 11:55:37;;;;;;;20.40;19.17;;;18.60;48.70;;;;;;5033511;28;20440;-48
2022/01/26 11:58:12;;;;;;;21.40;19.47;;;18.70;48.50;;;;;;5033532;28;20954;-45
2022/01/26 12:00:46;;;;;;;21.33;19.83;;;18.60;48.30;;;;;;5033438;28;20444;-46
2022/01/26 12:03:31;;;;;;;19.30;18.03;;;18.70;48.40;;;;;;5033434;28;20452;-45
2022/01/26 12:05:58;;;;;;;24.50;22.43;;;18.60;48.30;;;;;;5033142;28;20888;-49
2022/01/26 12:08:35;;;;;;;21.40;19.63;;;18.70;48.30;;;;;;5033204;28;20550;-45
2022/01/26 12:11:04;;;;;;;23.33;21.50;;;18.70;48.30;;;;;;5033205;28;20448;-47
2022/01/26 12:13:32;;;;;;;19.50;18.10;;;18.70;48.20;;;;;;5033131;28;20453;-46
2022/01/26 12:16:06;;;;;;;22.67;20.60;;;18.60;48.20;;;;;;5033207;28;20489;-49
2022/01/26 12:18:37;;;;;;;21.03;19.47;;;18.60;48.20;;;;;;5033191;28;20445;-46
2022/01/26 12:32:36;;;;;;;19.80;18.47;;;18.40;48.10;;;;;;5032861;28;20850;-45
2022/01/26 12:35:13;;;;;;;20.60;19.20;;;18.40;48.30;;;;;;5032830;28;20451;-45
2022/01/26 12:37:52;;;;;;;21.67;20.17;;;18.50;48.40;;;;;;5032942;28;20456;-44
2022/01/26 12:43:17;;;;;;;21.70;20.20;;;18.40;48.30;;;;;;5032961;28;20420;-45
2022/01/26 12:45:47;;;;;;;18.60;17.40;;;18.30;48.30;;;;;;5032444;28;20456;-46
2022/01/26 12:48:14;;;;;;;21.70;20.10;;;18.30;48.50;;;;;;5032638;28;20484;-48
2022/01/26 12:50:42;;;;;;;19.10;17.93;;;18.20;48.30;;;;;;5032597;28;20444;-47
2022/01/26 12:53:09;;;;;;;18.77;17.43;;;18.10;48.50;;;;;;5032397;28;20437;-50
2022/01/26 12:55:39;;;;;;;18.50;17.30;;;18.10;48.60;;;;;;5032232;28;20968;-45
2022/01/26 12:58:06;;;;;;;20.63;19.20;;;18.00;48.70;;;;;;5032469;28;20968;-46
2022/01/26 13:00:42;;;;;;;20.47;18.97;;;17.90;48.80;;;;;;5032162;28;20463;-48
2022/01/26 13:03:13;;;;;;;19.03;17.77;;;17.80;48.90;;;;;;5032304;28;20440;-45
2022/01/26 13:05:40;;;;;;;19.50;18.20;;;17.80;49.10;;;;;;5032229;28;20456;-47
2022/01/26 13:08:08;;;;;;;19.07;17.87;;;17.70;49.10;;;;;;5032000;28;20481;-45
2022/01/26 13:10:37;;;;;;;22.53;20.50;;;17.60;49.20;;;;;;5032183;28;21042;-45
2022/01/26 13:13:11;;;;;;;24.10;22.30;;;17.60;49.20;;;;;;5032051;28;20472;-45
2022/01/26 13:15:44;;;;;;;21.00;19.43;;;17.60;49.30;;;;;;5031893;28;20807;-45
2022/01/26 13:18:27;;;;;;;21.23;19.73;;;17.50;49.40;;;;;;5032006;28;20445;-45
2022/01/26 13:23:48;;;;;;;20.03;18.77;;;17.60;49.80;;;;;;5031707;28;20552;-48
2022/01/26 13:26:29;;;;;;;18.23;17.03;;;17.90;49.80;;;;;;5031358;28;20946;-45
2022/01/26 13:29:16;;;;;;;21.73;19.77;;;18.10;49.40;;;;;;5031737;28;20513;-48
2022/01/26 13:32:09;;;;;;;19.30;18.10;;;18.30;49.50;;;;;;5032014;28;20468;-45
2022/01/26 13:34:56;;;;;;;20.97;19.43;;;18.50;48.70;;;;;;5031981;28;20786;-45
2022/01/26 13:37:33;;;;;;;17.90;16.70;;;18.60;48.30;;;;;;5031687;28;20817;-45
2022/01/26 13:40:14;;;;;;;18.47;17.27;;;18.60;48.10;;;;;;5031739;28;20467;-45
2022/01/26 13:43:25;;;;;;;19.60;18.40;;;18.70;47.90;;;;;;5031689;28;20477;-45
2022/01/26 13:46:09;;;;;;;18.00;16.97;;;18.70;47.80;;;;;;5031513;28;20954;-45
2022/01/26 13:48:59;;;;;;;18.07;17.07;;;18.70;47.80;;;;;;5031692;28;20560;-47
2022/01/26 13:51:36;;;;;;;18.40;17.30;;;18.60;47.70;;;;;;5032158;28;20558;-57
2022/01/26 13:54:27;;;;;;;21.77;20.27;;;18.70;47.80;;;;;;5032092;28;20484;-50
2022/01/26 13:57:09;;;;;;;19.07;17.87;;;18.60;47.70;;;;;;5031882;28;20449;-57
2022/01/26 13:59:44;;;;;;;18.50;17.30;;;18.50;47.80;;;;;;5032350;28;20441;-53
2022/01/26 14:02:11;;;;;;;18.63;17.50;;;18.50;48.40;;;;;;5031810;28;20555;-51
2022/01/26 14:04:38;;;;;;;18.63;17.43;;;18.50;47.90;;;;;;5031688;28;20527;-51
2022/01/26 14:07:05;;;;;;;17.57;16.67;;;18.50;47.90;;;;;;5031667;28;20445;-49